sensor_id;sensor_type;location;lat;lon;timestamp;pressure;altitude;pressure_sealevel;temperature;humidity
49841;BME280;35738;49.890;5.930;2023-04-21T00:01:21;95380.63;;;2.51;100.00
49841;BME280;35738;49.890;5.930;2023-04-21T00:03:48;95378.16;;;2.55;100.00
49841;BME280;35738;49.890;5.930;2023-04-21T00:06:16;95385.19;;;2.56;100.00
49841;BME280;35738;49.890;5.930;2023-04-21T00:08:49;95380.50;;;2.62;100.00
49841;BME280;35738;49.890;5.930;2023-04-21T00:11:16;95383.22;;;2.62;100.00
49841;BME280;35738;49.890;5.930;2023-04-21T00:13:43;95379.19;;;2.59;100.00
49841;BME280;35738;49.890;5.930;2023-04-21T00:16:09;95375.44;;;2.55;100.00
49841;BME280;35738;49.890;5.930;2023-04-21T00:18:36;95378.38;;;2.59;100.00
49841;BME280;35738;49.890;5.930;2023-04-21T00:21:03;95373.22;;;2.57;100.00
49841;BME280;35738;49.890;5.930;2023-04-21T00:23:29;95371.41;;;2.52;100.00
49841;BME280;35738;49.890;5.930;2023-04-21T00:25:56;95376.59;;;2.49;100.00
49841;BME280;35738;49.890;5.930;2023-04-21T00:28:22;95373.88;;;2.49;100.00
49841;BME280;35738;49.890;5.930;2023-04-21T00:30:49;95358.19;;;2.46;100.00
49841;BME280;35738;49.890;5.930;2023-04-21T00:33:15;95369.84;;;2.46;100.00
49841;BME280;35738;49.890;5.930;2023-04-21T00:35:42;95363.97;;;2.39;100.00
49841;BME280;35738;49.890;5.930;2023-04-21T00:38:08;95355.53;;;2.41;100.00
49841;BME280;35738;49.890;5.930;2023-04-21T00:40:35;95351.13;;;2.45;100.00
49841;BME280;35738;49.890;5.930;2023-04-21T00:43:05;95346.28;;;2.42;100.00
49841;BME280;35738;49.890;5.930;2023-04-21T00:45:31;95343.81;;;2.45;100.00
49841;BME280;35738;49.890;5.930;2023-04-21T00:47:58;95352.22;;;2.44;100.00
49841;BME280;35738;49.890;5.930;2023-04-21T00:50:25;95355.41;;;2.51;100.00
49841;BME280;35738;49.890;5.930;2023-04-21T00:52:54;95353.19;;;2.53;100.00
49841;BME280;35738;49.890;5.930;2023-04-21T00:55:21;95351.28;;;2.53;100.00
49841;BME280;35738;49.890;5.930;2023-04-21T00:57:49;95354.75;;;2.59;100.00
49841;BME280;35738;49.890;5.930;2023-04-21T01:00:17;95358.78;;;2.62;100.00
49841;BME280;35738;49.890;5.930;2023-04-21T01:02:44;95365.53;;;2.64;100.00
49841;BME280;35738;49.890;5.930;2023-04-21T01:05:11;95363.34;;;2.66;100.00
49841;BME280;35738;49.890;5.930;2023-04-21T01:07:38;95372.00;;;2.68;100.00
49841;BME280;35738;49.890;5.930;2023-04-21T01:10:05;95363.56;;;2.70;100.00
49841;BME280;35738;49.890;5.930;2023-04-21T01:12:31;95364.59;;;2.74;100.00
49841;BME280;35738;49.890;5.930;2023-04-21T01:14:58;95368.13;;;2.74;100.00
49841;BME280;35738;49.890;5.930;2023-04-21T01:17:24;95366.44;;;2.78;100.00
49841;BME280;35738;49.890;5.930;2023-04-21T01:19:55;95361.00;;;2.78;100.00
49841;BME280;35738;49.890;5.930;2023-04-21T01:22:23;95358.56;;;2.77;100.00
49841;BME280;35738;49.890;5.930;2023-04-21T01:24:50;95353.16;;;2.77;100.00
49841;BME280;35738;49.890;5.930;2023-04-21T01:27:18;95352.41;;;2.71;100.00
49841;BME280;35738;49.890;5.930;2023-04-21T01:29:47;95349.19;;;2.69;100.00
49841;BME280;35738;49.890;5.930;2023-04-21T01:32:18;95355.72;;;2.68;100.00
49841;BME280;35738;49.890;5.930;2023-04-21T01:34:46;95342.44;;;2.67;100.00
49841;BME280;35738;49.890;5.930;2023-04-21T01:37:16;95343.81;;;2.64;100.00
49841;BME280;35738;49.890;5.930;2023-04-21T01:39:46;95351.44;;;2.62;100.00
49841;BME280;35738;49.890;5.930;2023-04-21T01:42:13;95343.59;;;2.61;100.00
49841;BME280;35738;49.890;5.930;2023-04-21T01:44:39;95351.69;;;2.66;100.00
49841;BME280;35738;49.890;5.930;2023-04-21T01:47:07;95350.88;;;2.65;100.00
49841;BME280;35738;49.890;5.930;2023-04-21T01:49:34;95347.41;;;2.60;100.00
49841;BME280;35738;49.890;5.930;2023-04-21T01:52:00;95352.63;;;2.56;100.00
49841;BME280;35738;49.890;5.930;2023-04-21T01:54:27;95353.72;;;2.55;100.00
49841;BME280;35738;49.890;5.930;2023-04-21T01:56:53;95346.16;;;2.52;100.00
49841;BME280;35738;49.890;5.930;2023-04-21T01:59:20;95347.31;;;2.46;100.00
49841;BME280;35738;49.890;5.930;2023-04-21T02:01:47;95350.63;;;2.43;100.00
49841;BME280;35738;49.890;5.930;2023-04-21T02:04:13;95348.31;;;2.31;100.00
49841;BME280;35738;49.890;5.930;2023-04-21T02:06:40;95347.00;;;2.29;100.00
49841;BME280;35738;49.890;5.930;2023-04-21T02:09:07;95332.44;;;2.19;100.00
49841;BME280;35738;49.890;5.930;2023-04-21T02:11:33;95332.84;;;2.08;100.00
49841;BME280;35738;49.890;5.930;2023-04-21T02:14:00;95332.91;;;2.03;100.00
49841;BME280;35738;49.890;5.930;2023-04-21T02:16:26;95328.56;;;2.02;100.00
49841;BME280;35738;49.890;5.930;2023-04-21T02:18:55;95329.22;;;1.94;100.00
49841;BME280;35738;49.890;5.930;2023-04-21T02:21:28;95325.91;;;1.97;100.00
49841;BME280;35738;49.890;5.930;2023-04-21T02:23:55;95330.88;;;1.89;100.00
49841;BME280;35738;49.890;5.930;2023-04-21T02:26:21;95323.91;;;1.83;100.00
49841;BME280;35738;49.890;5.930;2023-04-21T02:28:49;95322.50;;;1.86;100.00
49841;BME280;35738;49.890;5.930;2023-04-21T02:31:16;95320.66;;;1.81;100.00
49841;BME280;35738;49.890;5.930;2023-04-21T02:33:44;95319.38;;;1.74;100.00
49841;BME280;35738;49.890;5.930;2023-04-21T02:36:11;95324.53;;;1.75;100.00
49841;BME280;35738;49.890;5.930;2023-04-21T02:38:38;95322.16;;;1.69;100.00
49841;BME280;35738;49.890;5.930;2023-04-21T02:41:04;95318.13;;;1.66;100.00
49841;BME280;35738;49.890;5.930;2023-04-21T02:43:31;95323.78;;;1.70;100.00
49841;BME280;35738;49.890;5.930;2023-04-21T02:45:57;95317.25;;;1.71;100.00
49841;BME280;35738;49.890;5.930;2023-04-21T02:48:24;95316.91;;;1.77;100.00
49841;BME280;35738;49.890;5.930;2023-04-21T02:50:51;95317.31;;;1.66;100.00
49841;BME280;35738;49.890;5.930;2023-04-21T02:53:19;95306.22;;;1.62;100.00
49841;BME280;35738;49.890;5.930;2023-04-21T02:55:45;95304.91;;;1.59;100.00
49841;BME280;35738;49.890;5.930;2023-04-21T02:58:13;95305.19;;;1.58;100.00
49841;BME280;35738;49.890;5.930;2023-04-21T03:00:39;95307.91;;;1.58;100.00
49841;BME280;35738;49.890;5.930;2023-04-21T03:03:06;95301.16;;;1.55;100.00
49841;BME280;35738;49.890;5.930;2023-04-21T03:05:33;95287.69;;;1.45;100.00
49841;BME280;35738;49.890;5.930;2023-04-21T03:07:59;95292.63;;;1.38;100.00
49841;BME280;35738;49.890;5.930;2023-04-21T03:10:26;95287.25;;;1.33;100.00
49841;BME280;35738;49.890;5.930;2023-04-21T03:12:52;95285.69;;;1.27;100.00
49841;BME280;35738;49.890;5.930;2023-04-21T03:15:19;95286.25;;;1.24;100.00
49841;BME280;35738;49.890;5.930;2023-04-21T03:17:46;95296.34;;;1.18;100.00
49841;BME280;35738;49.890;5.930;2023-04-21T03:20:12;95299.09;;;1.13;100.00
49841;BME280;35738;49.890;5.930;2023-04-21T03:22:39;95298.03;;;1.09;100.00
49841;BME280;35738;49.890;5.930;2023-04-21T03:25:06;95294.06;;;0.97;100.00
49841;BME280;35738;49.890;5.930;2023-04-21T03:27:33;95296.53;;;0.93;100.00
49841;BME280;35738;49.890;5.930;2023-04-21T03:30:00;95292.41;;;1.01;100.00
49841;BME280;35738;49.890;5.930;2023-04-21T03:32:27;95294.56;;;1.04;100.00
49841;BME280;35738;49.890;5.930;2023-04-21T03:34:53;95286.31;;;1.19;100.00
49841;BME280;35738;49.890;5.930;2023-04-21T03:37:20;95289.88;;;1.14;100.00
49841;BME280;35738;49.890;5.930;2023-04-21T03:39:46;95293.00;;;1.26;100.00
49841;BME280;35738;49.890;5.930;2023-04-21T03:42:13;95296.47;;;1.32;100.00
49841;BME280;35738;49.890;5.930;2023-04-21T03:44:39;95296.75;;;1.31;100.00
49841;BME280;35738;49.890;5.930;2023-04-21T03:47:06;95309.22;;;1.32;100.00
49841;BME280;35738;49.890;5.930;2023-04-21T03:49:33;95309.44;;;1.35;100.00
49841;BME280;35738;49.890;5.930;2023-04-21T03:52:00;95306.97;;;1.39;100.00
49841;BME280;35738;49.890;5.930;2023-04-21T03:54:26;95315.38;;;1.37;100.00
49841;BME280;35738;49.890;5.930;2023-04-21T03:56:53;95322.22;;;1.30;100.00
49841;BME280;35738;49.890;5.930;2023-04-21T03:59:19;95318.72;;;1.29;100.00
49841;BME280;35738;49.890;5.930;2023-04-21T04:01:46;95327.84;;;1.38;100.00
49841;BME280;35738;49.890;5.930;2023-04-21T04:04:13;95321.84;;;1.41;100.00
49841;BME280;35738;49.890;5.930;2023-04-21T04:06:40;95329.22;;;1.36;100.00
49841;BME280;35738;49.890;5.930;2023-04-21T04:09:07;95323.09;;;1.25;100.00
49841;BME280;35738;49.890;5.930;2023-04-21T04:11:34;95319.31;;;1.21;100.00
49841;BME280;35738;49.890;5.930;2023-04-21T04:14:01;95324.31;;;1.09;100.00
49841;BME280;35738;49.890;5.930;2023-04-21T04:16:27;95323.75;;;1.12;100.00
49841;BME280;35738;49.890;5.930;2023-04-21T04:18:54;95310.19;;;1.12;100.00
49841;BME280;35738;49.890;5.930;2023-04-21T04:21:21;95322.69;;;1.08;100.00
49841;BME280;35738;49.890;5.930;2023-04-21T04:23:49;95321.06;;;1.07;100.00
49841;BME280;35738;49.890;5.930;2023-04-21T04:26:17;95321.97;;;0.97;100.00
49841;BME280;35738;49.890;5.930;2023-04-21T04:28:44;95326.50;;;1.07;100.00
49841;BME280;35738;49.890;5.930;2023-04-21T04:31:11;95329.13;;;1.17;100.00
49841;BME280;35738;49.890;5.930;2023-04-21T04:33:42;95331.75;;;1.27;100.00
49841;BME280;35738;49.890;5.930;2023-04-21T04:36:09;95330.03;;;1.36;100.00
49841;BME280;35738;49.890;5.930;2023-04-21T04:38:37;95328.31;;;1.45;100.00
49841;BME280;35738;49.890;5.930;2023-04-21T04:41:04;95329.06;;;1.56;100.00
49841;BME280;35738;49.890;5.930;2023-04-21T04:43:31;95324.41;;;1.62;100.00
49841;BME280;35738;49.890;5.930;2023-04-21T04:46:07;95335.75;;;1.64;100.00
49841;BME280;35738;49.890;5.930;2023-04-21T04:48:34;95339.28;;;1.64;100.00
49841;BME280;35738;49.890;5.930;2023-04-21T04:51:01;95329.47;;;1.68;100.00
49841;BME280;35738;49.890;5.930;2023-04-21T04:53:28;95329.19;;;1.70;100.00
49841;BME280;35738;49.890;5.930;2023-04-21T04:55:54;95322.72;;;1.66;100.00
49841;BME280;35738;49.890;5.930;2023-04-21T04:58:22;95325.38;;;1.71;100.00
49841;BME280;35738;49.890;5.930;2023-04-21T05:00:49;95325.38;;;1.71;100.00
49841;BME280;35738;49.890;5.930;2023-04-21T05:03:16;95333.22;;;1.72;100.00
49841;BME280;35738;49.890;5.930;2023-04-21T05:05:43;95336.19;;;1.76;100.00
49841;BME280;35738;49.890;5.930;2023-04-21T05:08:11;95332.13;;;1.73;100.00
49841;BME280;35738;49.890;5.930;2023-04-21T05:10:37;95331.28;;;1.78;100.00
49841;BME280;35738;49.890;5.930;2023-04-21T05:13:04;95341.25;;;1.82;100.00
49841;BME280;35738;49.890;5.930;2023-04-21T05:15:30;95336.88;;;1.86;100.00
49841;BME280;35738;49.890;5.930;2023-04-21T05:17:57;95337.09;;;1.90;100.00
49841;BME280;35738;49.890;5.930;2023-04-21T05:20:24;95332.91;;;2.03;100.00
49841;BME280;35738;49.890;5.930;2023-04-21T05:22:50;95334.41;;;2.14;100.00
49841;BME280;35738;49.890;5.930;2023-04-21T05:25:17;95336.59;;;2.36;100.00
49841;BME280;35738;49.890;5.930;2023-04-21T05:27:43;95333.03;;;2.59;100.00
49841;BME280;35738;49.890;5.930;2023-04-21T05:30:10;95331.34;;;2.63;100.00
49841;BME280;35738;49.890;5.930;2023-04-21T05:32:36;95341.56;;;2.90;100.00
49841;BME280;35738;49.890;5.930;2023-04-21T05:35:03;95347.88;;;3.04;100.00
49841;BME280;35738;49.890;5.930;2023-04-21T05:37:30;95346.91;;;3.33;100.00
49841;BME280;35738;49.890;5.930;2023-04-21T05:39:56;95349.69;;;3.60;100.00
49841;BME280;35738;49.890;5.930;2023-04-21T05:42:23;95351.59;;;3.78;100.00
49841;BME280;35738;49.890;5.930;2023-04-21T05:44:49;95342.72;;;3.87;100.00
49841;BME280;35738;49.890;5.930;2023-04-21T05:47:16;95346.47;;;4.04;100.00
49841;BME280;35738;49.890;5.930;2023-04-21T05:49:43;95346.59;;;4.13;100.00
49841;BME280;35738;49.890;5.930;2023-04-21T05:52:15;95332.97;;;3.99;100.00
49841;BME280;35738;49.890;5.930;2023-04-21T05:54:43;95344.06;;;4.03;100.00
49841;BME280;35738;49.890;5.930;2023-04-21T05:57:09;95351.44;;;4.30;100.00
49841;BME280;35738;49.890;5.930;2023-04-21T05:59:36;95339.94;;;4.60;100.00
49841;BME280;35738;49.890;5.930;2023-04-21T06:02:02;95342.88;;;5.00;100.00
49841;BME280;35738;49.890;5.930;2023-04-21T06:04:29;95341.91;;;4.82;100.00
49841;BME280;35738;49.890;5.930;2023-04-21T06:06:56;95342.84;;;4.77;100.00
49841;BME280;35738;49.890;5.930;2023-04-21T06:09:23;95341.38;;;4.94;100.00
49841;BME280;35738;49.890;5.930;2023-04-21T06:11:49;95338.69;;;5.52;100.00
49841;BME280;35738;49.890;5.930;2023-04-21T06:14:16;95335.50;;;5.59;100.00
49841;BME280;35738;49.890;5.930;2023-04-21T06:16:42;95324.72;;;5.98;100.00
49841;BME280;35738;49.890;5.930;2023-04-21T06:19:09;95321.19;;;5.98;100.00
49841;BME280;35738;49.890;5.930;2023-04-21T06:21:36;95315.81;;;5.03;100.00
49841;BME280;35738;49.890;5.930;2023-04-21T06:24:03;95314.94;;;5.30;100.00
49841;BME280;35738;49.890;5.930;2023-04-21T06:26:29;95311.78;;;5.59;100.00
49841;BME280;35738;49.890;5.930;2023-04-21T06:28:56;95304.81;;;5.75;100.00
49841;BME280;35738;49.890;5.930;2023-04-21T06:31:22;95299.16;;;5.94;100.00
49841;BME280;35738;49.890;5.930;2023-04-21T06:33:49;95299.44;;;5.39;100.00
49841;BME280;35738;49.890;5.930;2023-04-21T06:36:15;95297.22;;;5.41;100.00
49841;BME280;35738;49.890;5.930;2023-04-21T06:38:43;95295.69;;;5.80;100.00
49841;BME280;35738;49.890;5.930;2023-04-21T06:41:10;95295.16;;;6.40;100.00
49841;BME280;35738;49.890;5.930;2023-04-21T06:43:36;95294.41;;;5.55;100.00
49841;BME280;35738;49.890;5.930;2023-04-21T06:46:03;95285.53;;;4.83;100.00
49841;BME280;35738;49.890;5.930;2023-04-21T06:48:29;95299.09;;;4.60;100.00
49841;BME280;35738;49.890;5.930;2023-04-21T06:50:56;95300.44;;;5.43;100.00
49841;BME280;35738;49.890;5.930;2023-04-21T06:53:23;95294.75;;;5.31;100.00
49841;BME280;35738;49.890;5.930;2023-04-21T06:55:52;95302.53;;;5.47;100.00
49841;BME280;35738;49.890;5.930;2023-04-21T06:58:18;95293.16;;;6.15;100.00
49841;BME280;35738;49.890;5.930;2023-04-21T07:00:46;95292.88;;;5.40;100.00
49841;BME280;35738;49.890;5.930;2023-04-21T07:03:13;95286.91;;;4.94;100.00
49841;BME280;35738;49.890;5.930;2023-04-21T07:05:40;95291.31;;;4.67;100.00
49841;BME280;35738;49.890;5.930;2023-04-21T07:08:06;95294.03;;;4.67;100.00
49841;BME280;35738;49.890;5.930;2023-04-21T07:10:33;95295.06;;;4.94;100.00
49841;BME280;35738;49.890;5.930;2023-04-21T07:12:59;95280.72;;;5.02;100.00
49841;BME280;35738;49.890;5.930;2023-04-21T07:15:26;95284.59;;;5.23;100.00
49841;BME280;35738;49.890;5.930;2023-04-21T07:17:52;95284.03;;;5.35;100.00
49841;BME280;35738;49.890;5.930;2023-04-21T07:20:19;95284.19;;;5.38;100.00
49841;BME280;35738;49.890;5.930;2023-04-21T07:22:45;95284.97;;;5.61;100.00
49841;BME280;35738;49.890;5.930;2023-04-21T07:25:12;95285.44;;;5.32;100.00
49841;BME280;35738;49.890;5.930;2023-04-21T07:27:38;95279.66;;;5.56;100.00
49841;BME280;35738;49.890;5.930;2023-04-21T07:30:06;95279.22;;;5.63;100.00
49841;BME280;35738;49.890;5.930;2023-04-21T07:32:32;95276.53;;;5.40;100.00
49841;BME280;35738;49.890;5.930;2023-04-21T07:35:00;95282.53;;;5.82;100.00
49841;BME280;35738;49.890;5.930;2023-04-21T07:37:27;95285.25;;;6.04;100.00
49841;BME280;35738;49.890;5.930;2023-04-21T07:39:54;95284.38;;;6.35;100.00
49841;BME280;35738;49.890;5.930;2023-04-21T07:42:21;95279.59;;;6.49;100.00
49841;BME280;35738;49.890;5.930;2023-04-21T07:44:47;95275.41;;;5.95;100.00
49841;BME280;35738;49.890;5.930;2023-04-21T07:47:14;95269.47;;;5.70;100.00
49841;BME280;35738;49.890;5.930;2023-04-21T07:49:40;95278.63;;;5.97;100.00
49841;BME280;35738;49.890;5.930;2023-04-21T07:52:07;95282.78;;;5.41;100.00
49841;BME280;35738;49.890;5.930;2023-04-21T07:54:34;95273.59;;;5.90;100.00
49841;BME280;35738;49.890;5.930;2023-04-21T07:57:00;95278.59;;;6.28;100.00
49841;BME280;35738;49.890;5.930;2023-04-21T07:59:28;95278.03;;;6.65;100.00
49841;BME280;35738;49.890;5.930;2023-04-21T08:01:54;95276.09;;;6.57;100.00
49841;BME280;35738;49.890;5.930;2023-04-21T08:04:21;95268.09;;;6.69;100.00
49841;BME280;35738;49.890;5.930;2023-04-21T08:06:49;95265.22;;;6.75;100.00
49841;BME280;35738;49.890;5.930;2023-04-21T08:09:15;95263.44;;;6.79;100.00
49841;BME280;35738;49.890;5.930;2023-04-21T08:11:42;95246.66;;;6.54;100.00
49841;BME280;35738;49.890;5.930;2023-04-21T08:14:09;95250.69;;;6.65;100.00
49841;BME280;35738;49.890;5.930;2023-04-21T08:16:37;95250.44;;;7.10;100.00
49841;BME280;35738;49.890;5.930;2023-04-21T08:19:06;95250.59;;;7.14;100.00
49841;BME280;35738;49.890;5.930;2023-04-21T08:21:34;95249.13;;;7.16;100.00
49841;BME280;35738;49.890;5.930;2023-04-21T08:24:01;95250.72;;;7.34;100.00
49841;BME280;35738;49.890;5.930;2023-04-21T08:26:27;95244.59;;;7.38;100.00
49841;BME280;35738;49.890;5.930;2023-04-21T08:28:55;95239.00;;;6.99;100.00
49841;BME280;35738;49.890;5.930;2023-04-21T08:31:22;95249.75;;;7.30;100.00
49841;BME280;35738;49.890;5.930;2023-04-21T08:33:49;95243.34;;;7.26;100.00
49841;BME280;35738;49.890;5.930;2023-04-21T08:36:27;95240.94;;;7.16;100.00
49841;BME280;35738;49.890;5.930;2023-04-21T08:38:56;95240.72;;;7.56;100.00
49841;BME280;35738;49.890;5.930;2023-04-21T08:41:23;95243.41;;;7.73;100.00
49841;BME280;35738;49.890;5.930;2023-04-21T08:43:50;95251.22;;;8.01;100.00
49841;BME280;35738;49.890;5.930;2023-04-21T08:46:17;95240.19;;;7.80;100.00
49841;BME280;35738;49.890;5.930;2023-04-21T08:48:45;95240.56;;;7.52;100.00
49841;BME280;35738;49.890;5.930;2023-04-21T08:51:17;95243.75;;;7.72;100.00
49841;BME280;35738;49.890;5.930;2023-04-21T08:53:46;95241.38;;;7.53;100.00
49841;BME280;35738;49.890;5.930;2023-04-21T08:56:12;95239.81;;;7.90;100.00
49841;BME280;35738;49.890;5.930;2023-04-21T08:58:39;95240.97;;;7.80;100.00
49841;BME280;35738;49.890;5.930;2023-04-21T09:01:06;95238.78;;;7.65;100.00
49841;BME280;35738;49.890;5.930;2023-04-21T09:03:33;95238.56;;;7.79;100.00
49841;BME280;35738;49.890;5.930;2023-04-21T09:06:05;95240.91;;;7.97;100.00
49841;BME280;35738;49.890;5.930;2023-04-21T09:08:36;95236.94;;;8.24;100.00
49841;BME280;35738;49.890;5.930;2023-04-21T09:11:03;95236.69;;;8.47;100.00
49841;BME280;35738;49.890;5.930;2023-04-21T09:13:36;95234.06;;;8.80;100.00
49841;BME280;35738;49.890;5.930;2023-04-21T09:16:13;95231.56;;;8.96;100.00
49841;BME280;35738;49.890;5.930;2023-04-21T09:18:40;95230.28;;;8.43;100.00
49841;BME280;35738;49.890;5.930;2023-04-21T09:21:14;95226.00;;;8.24;100.00
49841;BME280;35738;49.890;5.930;2023-04-21T09:23:49;95225.53;;;8.22;100.00
49841;BME280;35738;49.890;5.930;2023-04-21T09:26:17;95226.03;;;8.75;100.00
49841;BME280;35738;49.890;5.930;2023-04-21T09:28:45;95214.13;;;8.71;100.00
49841;BME280;35738;49.890;5.930;2023-04-21T09:31:14;95225.75;;;8.68;100.00
49841;BME280;35738;49.890;5.930;2023-04-21T09:33:55;95225.81;;;8.59;100.00
49841;BME280;35738;49.890;5.930;2023-04-21T09:36:27;95218.41;;;9.22;100.00
49841;BME280;35738;49.890;5.930;2023-04-21T09:38:55;95219.94;;;8.90;100.00
49841;BME280;35738;49.890;5.930;2023-04-21T09:41:43;95209.94;;;8.94;100.00
49841;BME280;35738;49.890;5.930;2023-04-21T09:44:10;95208.63;;;9.33;100.00
49841;BME280;35738;49.890;5.930;2023-04-21T09:46:37;95201.78;;;9.72;100.00
49841;BME280;35738;49.890;5.930;2023-04-21T09:49:10;95195.91;;;9.62;100.00
49841;BME280;35738;49.890;5.930;2023-04-21T09:51:39;95184.22;;;9.19;100.00
49841;BME280;35738;49.890;5.930;2023-04-21T09:54:32;95194.72;;;9.50;100.00
49841;BME280;35738;49.890;5.930;2023-04-21T09:57:02;95191.09;;;9.26;100.00
49841;BME280;35738;49.890;5.930;2023-04-21T09:59:35;95179.50;;;9.08;100.00
49841;BME280;35738;49.890;5.930;2023-04-21T10:02:06;95181.78;;;9.39;100.00
49841;BME280;35738;49.890;5.930;2023-04-21T10:04:35;95183.63;;;9.47;100.00
49841;BME280;35738;49.890;5.930;2023-04-21T10:07:02;95186.91;;;9.73;100.00
49841;BME280;35738;49.890;5.930;2023-04-21T10:09:39;95178.09;;;9.35;100.00
49841;BME280;35738;49.890;5.930;2023-04-21T10:12:07;95181.78;;;10.08;100.00
49841;BME280;35738;49.890;5.930;2023-04-21T10:14:35;95169.41;;;9.33;100.00
49841;BME280;35738;49.890;5.930;2023-04-21T10:17:07;95176.78;;;9.65;100.00
49841;BME280;35738;49.890;5.930;2023-04-21T10:19:35;95177.41;;;9.38;100.00
49841;BME280;35738;49.890;5.930;2023-04-21T10:22:09;95175.94;;;9.98;100.00
49841;BME280;35738;49.890;5.930;2023-04-21T10:24:38;95171.94;;;10.07;100.00
49841;BME280;35738;49.890;5.930;2023-04-21T10:27:04;95173.34;;;10.38;100.00
49841;BME280;35738;49.890;5.930;2023-04-21T10:29:34;95173.44;;;10.54;100.00
49841;BME280;35738;49.890;5.930;2023-04-21T10:32:04;95175.16;;;10.34;100.00
49841;BME280;35738;49.890;5.930;2023-04-21T10:34:36;95158.69;;;10.46;100.00
49841;BME280;35738;49.890;5.930;2023-04-21T10:44:49;95160.50;;;9.93;100.00
49841;BME280;35738;49.890;5.930;2023-04-21T10:47:38;95178.25;;;10.08;100.00
49841;BME280;35738;49.890;5.930;2023-04-21T10:50:17;95167.72;;;9.98;100.00
49841;BME280;35738;49.890;5.930;2023-04-21T10:55:29;95164.75;;;10.52;100.00
49841;BME280;35738;49.890;5.930;2023-04-21T10:58:00;95163.38;;;10.45;100.00
49841;BME280;35738;49.890;5.930;2023-04-21T11:00:27;95160.97;;;10.32;100.00
49841;BME280;35738;49.890;5.930;2023-04-21T11:03:02;95163.47;;;10.12;100.00
49841;BME280;35738;49.890;5.930;2023-04-21T11:05:35;95158.34;;;10.23;100.00
49841;BME280;35738;49.890;5.930;2023-04-21T11:10:44;95152.13;;;10.63;100.00
49841;BME280;35738;49.890;5.930;2023-04-21T11:13:11;95154.22;;;10.29;100.00
49841;BME280;35738;49.890;5.930;2023-04-21T11:15:37;95148.25;;;10.27;100.00
49841;BME280;35738;49.890;5.930;2023-04-21T11:18:04;95152.22;;;10.66;100.00
49841;BME280;35738;49.890;5.930;2023-04-21T11:20:32;95145.75;;;10.46;100.00
49841;BME280;35738;49.890;5.930;2023-04-21T11:22:59;95132.78;;;10.35;100.00
49841;BME280;35738;49.890;5.930;2023-04-21T11:25:25;95137.94;;;10.48;100.00
49841;BME280;35738;49.890;5.930;2023-04-21T11:27:54;95129.94;;;10.43;100.00
49841;BME280;35738;49.890;5.930;2023-04-21T11:30:30;95122.81;;;10.55;100.00
49841;BME280;35738;49.890;5.930;2023-04-21T11:32:58;95127.75;;;10.49;100.00
49841;BME280;35738;49.890;5.930;2023-04-21T11:35:25;95117.97;;;10.64;100.00
49841;BME280;35738;49.890;5.930;2023-04-21T11:37:51;95134.00;;;10.74;100.00
49841;BME280;35738;49.890;5.930;2023-04-21T11:40:18;95122.94;;;11.14;100.00
49841;BME280;35738;49.890;5.930;2023-04-21T11:42:45;95116.69;;;11.29;100.00
49841;BME280;35738;49.890;5.930;2023-04-21T11:45:18;95110.50;;;11.48;100.00
49841;BME280;35738;49.890;5.930;2023-04-21T11:47:48;95109.88;;;11.39;100.00
49841;BME280;35738;49.890;5.930;2023-04-21T11:50:29;95120.00;;;11.07;100.00
49841;BME280;35738;49.890;5.930;2023-04-21T11:52:57;95119.16;;;11.19;100.00
49841;BME280;35738;49.890;5.930;2023-04-21T11:55:23;95121.41;;;11.29;100.00
49841;BME280;35738;49.890;5.930;2023-04-21T11:57:50;95116.78;;;11.05;100.00
49841;BME280;35738;49.890;5.930;2023-04-21T12:00:17;95113.00;;;11.09;100.00
49841;BME280;35738;49.890;5.930;2023-04-21T12:02:53;95118.00;;;11.20;100.00
49841;BME280;35738;49.890;5.930;2023-04-21T12:05:20;95112.78;;;11.02;100.00
49841;BME280;35738;49.890;5.930;2023-04-21T12:07:47;95104.41;;;10.83;100.00
49841;BME280;35738;49.890;5.930;2023-04-21T12:10:17;95118.91;;;11.24;100.00
49841;BME280;35738;49.890;5.930;2023-04-21T12:12:44;95108.28;;;11.38;100.00
49841;BME280;35738;49.890;5.930;2023-04-21T12:15:16;95110.94;;;11.34;100.00
49841;BME280;35738;49.890;5.930;2023-04-21T12:17:46;95098.78;;;11.51;100.00
49841;BME280;35738;49.890;5.930;2023-04-21T12:20:18;95106.16;;;11.63;100.00
49841;BME280;35738;49.890;5.930;2023-04-21T12:22:45;95101.41;;;11.91;100.00
49841;BME280;35738;49.890;5.930;2023-04-21T12:25:12;95099.16;;;12.13;100.00
49841;BME280;35738;49.890;5.930;2023-04-21T12:27:52;95093.75;;;12.16;100.00
49841;BME280;35738;49.890;5.930;2023-04-21T12:30:20;95104.53;;;12.05;100.00
49841;BME280;35738;49.890;5.930;2023-04-21T12:32:47;95094.03;;;11.95;100.00
49841;BME280;35738;49.890;5.930;2023-04-21T12:35:14;95090.28;;;12.03;100.00
49841;BME280;35738;49.890;5.930;2023-04-21T12:37:40;95091.78;;;11.85;100.00
49841;BME280;35738;49.890;5.930;2023-04-21T12:40:07;95091.88;;;11.89;100.00
49841;BME280;35738;49.890;5.930;2023-04-21T12:42:34;95089.47;;;11.71;100.00
49841;BME280;35738;49.890;5.930;2023-04-21T12:45:04;95099.25;;;11.85;100.00
49841;BME280;35738;49.890;5.930;2023-04-21T12:47:30;95094.75;;;11.92;100.00
49841;BME280;35738;49.890;5.930;2023-04-21T12:49:58;95097.16;;;11.94;100.00
49841;BME280;35738;49.890;5.930;2023-04-21T12:52:25;95085.50;;;11.85;100.00
49841;BME280;35738;49.890;5.930;2023-04-21T12:54:52;95087.25;;;11.77;100.00
49841;BME280;35738;49.890;5.930;2023-04-21T12:57:19;95090.81;;;11.77;100.00
49841;BME280;35738;49.890;5.930;2023-04-21T12:59:46;95100.28;;;11.33;100.00
49841;BME280;35738;49.890;5.930;2023-04-21T13:02:13;95103.28;;;11.28;100.00
49841;BME280;35738;49.890;5.930;2023-04-21T13:04:40;95100.34;;;11.21;100.00
49841;BME280;35738;49.890;5.930;2023-04-21T13:07:08;95107.53;;;10.97;100.00
49841;BME280;35738;49.890;5.930;2023-04-21T13:09:34;95116.50;;;10.94;100.00
49841;BME280;35738;49.890;5.930;2023-04-21T13:12:01;95116.41;;;10.91;100.00
49841;BME280;35738;49.890;5.930;2023-04-21T13:14:28;95106.50;;;10.74;100.00